TimeBST,TemperatureF,Dew PointF,Humidity,Sea Level PressureIn,VisibilityMPH,Wind Direction,Wind SpeedMPH,Gust SpeedMPH,PrecipitationIn,Events,Conditions,WindDirDegrees,DateUTC
12:50 AM,33,32,95,29.39,16,North,4.6,,,,Overcast,10,2012-10-15 23:50:00
12:50 AM,33.8,32.0,93,29.39,6.2,North,4.6,-,N/A,,Overcast,10,2012-10-15 23:50:00
1:50 AM,35.6,35.6,100,29.36,6.2,NNE,3.5,-,N/A,,Mostly Cloudy,20,2012-10-16 00:50:00
2:50 AM,37.4,35.6,93,29.33,6.2,NE,8.1,-,N/A,,Overcast,40,2012-10-16 01:50:00
3:50 AM,41,39,88,29.33,16,ENE,5.8,,,,Overcast,60,2012-10-16 02:50:00
3:50 AM,41.0,39.2,93,29.33,6.2,ENE,5.8,-,N/A,,Overcast,60,2012-10-16 02:50:00
4:50 AM,41.0,39.2,93,29.30,6.2,NNE,10.4,-,N/A,,Overcast,30,2012-10-16 03:50:00
5:50 AM,46.4,37.4,71,29.27,6.2,ESE,15.0,-,N/A,Rain,Light Rain,120,2012-10-16 04:50:00
6:50 AM,45,38,68,29.26,16,ESE,15.0,,,Rain,Light Rain,110,2012-10-16 05:50:00
6:50 AM,44.6,37.4,76,29.24,6.2,ESE,15.0,-,N/A,Rain,Light Rain,110,2012-10-16 05:50:00
7:50 AM,44.6,37.4,76,29.27,6.2,East,15.0,-,N/A,Rain,Light Rain,80,2012-10-16 06:50:00
8:50 AM,42.8,37.4,81,29.27,6.2,ENE,15.0,-,N/A,Rain,Rain,70,2012-10-16 07:50:00
9:50 AM,44,38,73,29.28,12,NE,13.8,,,Rain,Light Rain,50,2012-10-16 08:50:00
9:50 AM,42.8,39.2,87,29.27,6.2,NE,13.8,-,N/A,Rain,Light Rain,50,2012-10-16 08:50:00
10:19 AM,42.8,39.2,87,29.27,6.2,NNE,11.5,-,N/A,Rain,Rain,20,2012-10-16 09:19:00
10:50 AM,42.8,39.2,87,29.27,6.2,NNE,10.4,-,N/A,Rain,Light Rain,20,2012-10-16 09:50:00
11:50 AM,42.8,39.2,87,29.30,6.2,North,11.5,-,N/A,Rain,Light Rain,360,2012-10-16 10:50:00
12:50 PM,43,39,80,29.33,19,NNW,8.1,,,Rain,Light Rain,330,2012-10-16 11:50:00
12:50 PM,42.8,39.2,87,29.33,6.2,NNW,8.1,-,N/A,,Overcast,330,2012-10-16 11:50:00
1:50 PM,44.6,39.2,81,29.33,6.2,NW,6.9,-,N/A,,Mostly Cloudy,320,2012-10-16 12:50:00
2:50 PM,46.4,39.2,76,29.36,6.2,NNW,8.1,-,N/A,,Mostly Cloudy,330,2012-10-16 13:50:00
3:50 PM,46,36,58,29.39,31,NW,10.4,,,,Partly Cloudy,310,2012-10-16 14:50:00
3:50 PM,46.4,35.6,66,29.36,6.2,NW,10.4,-,N/A,,Mostly Cloudy,310,2012-10-16 14:50:00
4:50 PM,44.6,39.2,81,29.39,6.2,West,12.7,-,N/A,,Mostly Cloudy,270,2012-10-16 15:50:00
5:50 PM,44.6,37.4,76,29.39,6.2,West,9.2,-,N/A,,Partly Cloudy,270,2012-10-16 16:50:00
6:50 PM,39,35,82,29.43,37,SW,5.8,,,,Partly Cloudy,230,2012-10-16 17:50:00
6:50 PM,39.2,35.6,87,29.42,6.2,SW,5.8,-,N/A,,Partly Cloudy,230,2012-10-16 17:50:00
7:50 PM,37.4,35.6,93,29.44,-9999.0,West,6.9,-,N/A,,Clear,260,2012-10-16 18:50:00
8:50 PM,37.4,35.6,93,29.47,6.2,West,4.6,-,N/A,,Partly Cloudy,280,2012-10-16 19:50:00
9:50 PM,38,35,85,29.48,25,West,4.6,,,,Scattered Clouds,270,2012-10-16 20:50:00
9:50 PM,37.4,35.6,93,29.47,6.2,West,4.6,-,N/A,,Partly Cloudy,270,2012-10-16 20:50:00
10:50 PM,35.6,33.8,93,29.47,-9999.0,North,1.2,-,N/A,,Clear,10,2012-10-16 21:50:00
11:50 PM,33.8,33.8,100,29.47,-9999.0,WSW,3.5,-,N/A,,Clear,250,2012-10-16 22:50:00